createdAt,value
2023-01-07T00:01:15.436Z,98617.10
2023-01-07T00:03:42.823Z,98621.09
2023-01-07T00:06:15.154Z,98616.61
2023-01-07T00:08:43.924Z,98615.02
2023-01-07T00:11:22.286Z,98606.99
2023-01-07T00:13:49.796Z,98603.26
2023-01-07T00:16:18.520Z,98592.20
2023-01-07T00:18:48.372Z,98586.89
2023-01-07T00:21:16.403Z,98597.44
2023-01-07T00:23:43.781Z,98596.20
2023-01-07T00:26:12.845Z,98584.26
2023-01-07T00:28:42.435Z,98573.20
2023-01-07T00:31:11.105Z,98573.77
2023-01-07T00:33:47.855Z,98570.66
2023-01-07T00:36:14.803Z,98568.09
2023-01-07T00:38:41.630Z,98570.51
2023-01-07T00:41:09.553Z,98571.48
2023-01-07T00:43:36.403Z,98580.17
2023-01-07T00:46:03.293Z,98581.73
2023-01-07T00:48:30.232Z,98579.41
2023-01-07T00:50:57.156Z,98575.39
2023-01-07T00:53:25.227Z,98572.14
2023-01-07T00:55:52.280Z,98566.59
2023-01-07T00:58:27.052Z,98567.98
2023-01-07T01:00:57.883Z,98583.05
2023-01-07T01:03:25.422Z,98587.20
2023-01-07T01:05:52.414Z,98588.21
2023-01-07T01:08:24.872Z,98590.37
2023-01-07T01:10:51.707Z,98588.87
2023-01-07T01:13:26.393Z,98586.23
2023-01-07T01:15:55.331Z,98576.74
2023-01-07T01:18:25.044Z,98577.41
2023-01-07T01:20:52.016Z,98579.63
2023-01-07T01:23:18.937Z,98578.75
2023-01-07T01:25:48.321Z,98587.45
2023-01-07T01:28:15.347Z,98595.19
2023-01-07T01:30:44.543Z,98587.25
2023-01-07T01:33:12.833Z,98582.85
2023-01-07T01:35:41.177Z,98581.02
2023-01-07T01:38:11.354Z,98576.63
2023-01-07T01:40:38.332Z,98577.94
2023-01-07T01:43:05.503Z,98574.91
2023-01-07T01:45:32.637Z,98566.34
2023-01-07T01:48:08.892Z,98563.41
2023-01-07T01:50:39.061Z,98556.86
2023-01-07T01:53:10.405Z,98545.90
2023-01-07T01:56:09.774Z,98544.08
2023-01-07T01:58:39.353Z,98545.84
2023-01-07T02:01:06.656Z,98539.06
2023-01-07T02:03:37.107Z,98542.34
2023-01-07T02:06:04.281Z,98545.19
2023-01-07T02:08:31.264Z,98551.93
2023-01-07T02:11:45.844Z,98555.86
2023-01-07T02:14:31.464Z,98554.15
2023-01-07T02:17:12.740Z,98561.95
2023-01-07T02:20:01.392Z,98563.34
2023-01-07T02:22:31.333Z,98570.02
2023-01-07T02:25:18.868Z,98568.05
2023-01-07T02:28:00.193Z,98563.33
2023-01-07T02:30:50.813Z,98559.57
2023-01-07T02:33:56.265Z,98559.14
2023-01-07T02:36:47.591Z,98566.16
2023-01-07T02:39:24.147Z,98560.38
2023-01-07T02:41:59.073Z,98558.90
2023-01-07T02:44:49.221Z,98558.20
2023-01-07T02:47:21.989Z,98551.55
2023-01-07T02:49:49.062Z,98543.91
2023-01-07T02:52:23.239Z,98536.44
2023-01-07T02:55:04.819Z,98536.16
2023-01-07T02:57:57.001Z,98533.15
2023-01-07T03:00:46.168Z,98535.39
2023-01-07T03:03:13.123Z,98532.13
2023-01-07T03:05:49.160Z,98533.92
2023-01-07T03:08:23.739Z,98532.10
2023-01-07T03:11:03.185Z,98529.63
2023-01-07T03:13:43.647Z,98534.85
2023-01-07T03:16:14.091Z,98537.30
2023-01-07T03:18:44.282Z,98544.78
2023-01-07T03:21:13.784Z,98538.95
2023-01-07T03:23:44.157Z,98534.61
2023-01-07T03:26:11.140Z,98531.73
2023-01-07T03:28:40.999Z,98530.91
2023-01-07T03:31:10.666Z,98540.68
2023-01-07T03:33:56.961Z,98538.13
2023-01-07T03:36:26.076Z,98534.42
2023-01-07T03:38:54.338Z,98536.33
2023-01-07T03:41:39.966Z,98531.12
2023-01-07T03:44:07.465Z,98540.77
2023-01-07T03:46:34.720Z,98539.37
2023-01-07T03:49:01.629Z,98542.19
2023-01-07T03:51:28.572Z,98539.48
2023-01-07T03:53:55.954Z,98541.13
2023-01-07T03:56:23.513Z,98541.66
2023-01-07T03:58:50.371Z,98543.71
2023-01-07T04:01:17.455Z,98535.08
2023-01-07T04:03:44.733Z,98539.27
2023-01-07T04:06:14.180Z,98538.41
2023-01-07T04:08:41.080Z,98541.66
2023-01-07T04:11:08.037Z,98551.52
2023-01-07T04:13:37.833Z,98553.61
2023-01-07T04:16:05.073Z,98564.09
2023-01-07T04:18:31.912Z,98574.53
2023-01-07T04:22:37.599Z,98577.71
2023-01-07T04:25:06.279Z,98586.55
2023-01-07T04:27:36.401Z,98587.84
2023-01-07T04:30:03.957Z,98593.87
2023-01-07T04:32:34.508Z,98590.85
2023-01-07T04:35:05.125Z,98593.94
2023-01-07T04:37:32.370Z,98595.76
2023-01-07T04:40:05.012Z,98593.77
2023-01-07T04:42:34.671Z,98590.05
2023-01-07T04:45:02.147Z,98571.44
2023-01-07T04:47:29.675Z,98566.05
2023-01-07T04:49:56.818Z,98565.06
2023-01-07T04:52:24.072Z,98563.90
2023-01-07T04:54:51.228Z,98567.43
2023-01-07T04:57:18.897Z,98567.92
2023-01-07T04:59:46.321Z,98566.36
2023-01-07T05:02:13.550Z,98578.96
2023-01-07T05:04:41.281Z,98584.20
2023-01-07T05:07:11.476Z,98588.52
2023-01-07T05:09:41.799Z,98595.71
2023-01-07T05:12:08.780Z,98594.49
2023-01-07T05:14:35.997Z,98603.96
2023-01-07T05:17:03.023Z,98613.07
2023-01-07T05:19:30.192Z,98613.27
2023-01-07T05:21:58.923Z,98604.58
2023-01-07T05:24:27.484Z,98604.42
2023-01-07T05:26:55.017Z,98605.71
2023-01-07T05:29:25.666Z,98595.17
2023-01-07T05:31:53.216Z,98591.13
2023-01-07T05:34:23.738Z,98590.27
2023-01-07T05:36:53.034Z,98588.84
2023-01-07T05:39:20.003Z,98594.29
2023-01-07T05:41:47.198Z,98599.36
2023-01-07T05:44:14.284Z,98599.46
2023-01-07T05:46:41.238Z,98607.70
2023-01-07T05:49:08.283Z,98611.86
2023-01-07T05:51:35.638Z,98612.73
2023-01-07T05:54:02.571Z,98617.55
2023-01-07T05:56:29.620Z,98619.52
2023-01-07T05:58:56.672Z,98617.36
2023-01-07T06:01:23.580Z,98620.52
2023-01-07T16:40:23.979Z,98840.26
2023-01-07T16:42:51.351Z,98841.17
2023-01-07T16:45:23.766Z,98836.85
2023-01-07T16:48:19.728Z,98831.59
2023-01-07T16:50:47.708Z,98827.90
2023-01-07T16:53:32.537Z,98830.16
2023-01-07T16:56:02.679Z,98830.98
2023-01-07T16:58:29.646Z,98830.79
2023-01-07T17:00:57.570Z,98829.71
2023-01-07T17:03:24.521Z,98825.38
2023-01-07T17:06:04.899Z,98827.81
2023-01-07T17:08:31.870Z,98833.27
2023-01-07T17:11:36.755Z,98833.68
2023-01-07T17:14:03.839Z,98830.83
2023-01-07T17:16:31.576Z,98828.27
2023-01-07T17:19:20.988Z,98830.62
2023-01-07T17:21:48.086Z,98829.31
2023-01-07T17:24:27.851Z,98823.10
2023-01-07T17:26:59.374Z,98825.14
2023-01-07T17:29:30.323Z,98822.79
2023-01-07T17:31:59.509Z,98822.35
2023-01-07T17:34:29.306Z,98826.30
2023-01-07T17:36:56.133Z,98826.95
2023-01-07T17:39:23.088Z,98826.57
2023-01-07T17:42:08.822Z,98821.98
2023-01-07T17:44:38.245Z,98823.52
2023-01-07T17:47:06.480Z,98821.07
2023-01-07T17:49:38.023Z,98828.80
2023-01-07T17:52:05.930Z,98832.39
2023-01-07T17:54:36.243Z,98832.63
2023-01-07T17:57:03.055Z,98830.23
2023-01-07T17:59:30.655Z,98827.83
2023-01-07T18:01:59.200Z,98826.75
2023-01-07T18:04:27.142Z,98826.23
2023-01-07T18:06:54.493Z,98831.00
2023-01-07T18:09:21.702Z,98831.61
2023-01-07T18:12:07.483Z,98829.55
2023-01-07T18:14:34.482Z,98831.23
2023-01-07T18:17:01.509Z,98827.23
2023-01-07T18:19:28.495Z,98830.20
2023-01-07T18:21:56.473Z,98829.48
2023-01-07T18:24:23.702Z,98828.16
2023-01-07T18:26:50.640Z,98826.59
2023-01-07T18:29:17.598Z,98822.36
2023-01-07T18:31:44.549Z,98822.52
2023-01-07T18:34:12.272Z,98825.27
2023-01-07T18:36:39.295Z,98822.60
2023-01-07T18:39:06.351Z,98820.40
2023-01-07T18:41:35.302Z,98820.02
2023-01-07T18:44:03.338Z,98819.56
2023-01-07T18:46:31.091Z,98820.44
2023-01-07T18:48:58.209Z,98822.52
2023-01-07T18:51:25.235Z,98828.06
2023-01-07T18:53:52.687Z,98819.64
2023-01-07T18:56:24.232Z,98818.74
2023-01-07T18:59:01.070Z,98819.17
2023-01-07T19:01:28.594Z,98814.84
2023-01-07T19:03:58.719Z,98810.39
2023-01-07T19:06:26.813Z,98810.70
2023-01-07T19:08:56.660Z,98810.91
2023-01-07T19:11:23.813Z,98811.26
2023-01-07T19:13:50.856Z,98811.09
2023-01-07T19:16:17.892Z,98810.48
2023-01-07T19:18:45.218Z,98808.19
2023-01-07T19:21:12.356Z,98808.60
2023-01-07T19:23:39.362Z,98806.34
2023-01-07T19:26:07.671Z,98803.99
2023-01-07T19:28:34.722Z,98799.79
2023-01-07T19:31:04.659Z,98802.92
2023-01-07T19:33:31.559Z,98806.45
2023-01-07T19:36:15.832Z,98805.36
2023-01-07T19:38:45.426Z,98806.72
2023-01-07T19:41:15.008Z,98802.60
2023-01-07T19:43:41.950Z,98808.77
2023-01-07T19:46:09.948Z,98811.20
2023-01-07T19:48:39.355Z,98812.82
2023-01-07T19:51:06.414Z,98808.17
2023-01-07T19:53:33.763Z,98813.89
2023-01-07T19:56:01.680Z,98811.25
2023-01-07T19:58:29.253Z,98814.79
2023-01-07T20:00:58.900Z,98818.74
2023-01-07T20:03:26.120Z,98817.50
2023-01-07T20:05:53.161Z,98817.55
2023-01-07T20:08:20.317Z,98823.44
2023-01-07T20:10:55.908Z,98823.94
2023-01-07T20:13:22.779Z,98826.86
2023-01-07T20:15:52.251Z,98828.17
2023-01-07T20:18:19.602Z,98823.48
2023-01-07T20:20:56.744Z,98827.11
2023-01-07T20:23:23.966Z,98823.11
2023-01-07T20:25:51.254Z,98823.80
2023-01-07T20:28:21.802Z,98826.56
2023-01-07T20:30:48.758Z,98829.21
2023-01-07T20:33:15.627Z,98834.56
2023-01-07T20:35:43.269Z,98839.23
2023-01-07T20:38:11.653Z,98837.11
2023-01-07T20:40:39.431Z,98835.30
2023-01-07T20:43:06.429Z,98837.63
2023-01-07T20:45:38.722Z,98832.60
2023-01-07T20:48:08.340Z,98833.45
2023-01-07T20:50:39.051Z,98832.75
2023-01-07T20:53:06.149Z,98835.70
2023-01-07T20:55:33.455Z,98833.52
2023-01-07T20:58:00.478Z,98839.87
2023-01-07T21:00:27.628Z,98843.02
2023-01-07T21:02:54.734Z,98842.15
2023-01-07T21:05:23.450Z,98838.02
2023-01-07T21:07:50.703Z,98836.41
2023-01-07T21:10:18.655Z,98830.50
2023-01-07T21:12:46.186Z,98826.27
2023-01-07T21:15:14.302Z,98829.50
2023-01-07T21:17:41.580Z,98827.46
2023-01-07T21:20:09.336Z,98831.14
2023-01-07T21:22:38.021Z,98832.90
2023-01-07T21:25:09.059Z,98830.33
2023-01-07T21:27:36.392Z,98835.29
2023-01-07T21:30:06.043Z,98832.20
2023-01-07T21:32:34.745Z,98834.28
2023-01-07T21:35:01.831Z,98836.66
2023-01-07T21:37:29.402Z,98839.35
2023-01-07T21:39:56.534Z,98835.61
2023-01-07T21:42:23.521Z,98831.42
2023-01-07T21:44:50.694Z,98835.45
2023-01-07T21:47:17.649Z,98835.20
2023-01-07T21:49:44.441Z,98836.50
2023-01-07T21:52:11.214Z,98836.55
2023-01-07T21:54:38.180Z,98831.02
2023-01-07T21:57:05.053Z,98834.41
2023-01-07T21:59:31.846Z,98835.73
2023-01-07T22:01:59.018Z,98829.58
2023-01-07T22:04:27.097Z,98825.45
2023-01-07T22:06:54.030Z,98821.02
2023-01-07T22:09:20.872Z,98823.08
2023-01-07T22:11:50.792Z,98828.17
2023-01-07T22:14:18.523Z,98825.21
2023-01-07T22:16:47.514Z,98827.59
2023-01-07T22:19:15.902Z,98823.08
2023-01-07T22:21:45.899Z,98828.14
2023-01-07T22:24:14.420Z,98826.70
2023-01-07T22:26:41.406Z,98826.70
2023-01-07T22:29:08.486Z,98823.73
2023-01-07T22:31:36.863Z,98823.34
2023-01-07T22:34:05.022Z,98821.50
2023-01-07T22:36:35.093Z,98821.38
2023-01-07T22:39:05.531Z,98816.64
2023-01-07T22:41:32.502Z,98810.52
2023-01-07T22:44:05.272Z,98809.10
2023-01-07T22:46:32.135Z,98809.40
2023-01-07T22:48:59.145Z,98810.53
2023-01-07T22:51:37.924Z,98813.55
2023-01-07T22:54:05.548Z,98805.27
2023-01-07T22:56:32.846Z,98810.83
2023-01-07T22:59:04.527Z,98811.16
2023-01-07T23:01:32.171Z,98810.36
2023-01-07T23:03:59.041Z,98805.13
2023-01-07T23:06:27.027Z,98807.19
2023-01-07T23:08:53.883Z,98807.04
2023-01-07T23:11:39.499Z,98806.35
2023-01-07T23:14:11.143Z,98809.29
2023-01-07T23:16:40.393Z,98811.21
2023-01-07T23:19:07.476Z,98814.60
2023-01-07T23:21:34.578Z,98804.70
2023-01-07T23:24:01.521Z,98804.35
2023-01-07T23:26:28.441Z,98797.20
2023-01-07T23:28:55.346Z,98796.67
2023-01-07T23:31:22.222Z,98796.19
2023-01-07T23:33:49.081Z,98799.08
2023-01-07T23:36:15.951Z,98801.38
2023-01-07T23:38:42.884Z,98802.29
2023-01-07T23:41:10.687Z,98798.02
2023-01-07T23:43:37.725Z,98803.54
2023-01-07T23:46:06.031Z,98802.30
2023-01-07T23:48:33.752Z,98801.63
2023-01-07T23:51:10.592Z,98796.76
2023-01-07T23:53:37.757Z,98800.51
2023-01-07T23:56:04.911Z,98795.94
2023-01-07T23:58:32.267Z,98795.95
